Time;durP1;ratioP1;P1;durP2;ratioP2;P2;SDS_P1;SDS_P2;PMS_P1;PMS_P2;Temp;Humidity;BMP_temperature;BMP_pressure;BME280_temperature;BME280_humidity;BME280_pressure;Samples;Min_cycle;Max_cycle;Signal;HPM_P1;HPM_P2
2024/04/05 00:01:19;;;;;;;0.05;0.05;;;13.80;85.40;;;;;;5043043;28;20041;-78
2024/04/05 00:03:45;;;;;;;0.00;0.00;;;13.90;85.40;;;;;;5038595;28;20069;-79
2024/04/05 00:06:11;;;;;;;0.10;0.10;;;13.90;85.30;;;;;;5019963;28;20025;-78
2024/04/05 00:08:37;;;;;;;0.10;0.10;;;13.90;85.20;;;;;;5019589;28;20029;-78
2024/04/05 00:11:03;;;;;;;0.10;0.10;;;13.80;85.20;;;;;;5019353;28;20030;-78
2024/04/05 00:13:29;;;;;;;0.10;0.10;;;13.90;85.30;;;;;;5019640;28;20072;-78
2024/04/05 00:15:54;;;;;;;0.10;0.10;;;13.80;85.50;;;;;;5019325;28;20034;-78
2024/04/05 00:18:20;;;;;;;0.10;0.10;;;13.80;85.70;;;;;;5019534;28;20053;-78
2024/04/05 00:20:46;;;;;;;0.00;0.00;;;13.70;85.80;;;;;;5019150;28;20069;-78
2024/04/05 00:23:13;;;;;;;0.00;0.00;;;13.70;85.90;;;;;;5019100;28;20149;-78
2024/04/05 00:25:39;;;;;;;0.08;0.08;;;13.70;85.90;;;;;;5019713;28;20030;-78
2024/04/05 00:28:05;;;;;;;0.00;0.00;;;13.80;85.90;;;;;;5019368;28;20045;-78
2024/04/05 00:30:31;;;;;;;0.10;0.10;;;13.80;85.70;;;;;;5020512;28;20030;-78
2024/04/05 00:32:56;;;;;;;0.00;0.00;;;13.80;85.70;;;;;;5019471;28;20144;-78
2024/04/05 00:35:22;;;;;;;0.00;0.00;;;13.70;85.70;;;;;;5019134;28;20038;-78
2024/04/05 00:37:47;;;;;;;0.10;0.10;;;13.80;85.70;;;;;;5034323;28;20485;-78
2024/04/05 00:40:13;;;;;;;0.08;0.08;;;13.80;85.50;;;;;;5067517;28;20049;-78
2024/04/05 00:42:39;;;;;;;0.00;0.00;;;13.80;85.40;;;;;;5059225;28;20104;-78
2024/04/05 00:45:05;;;;;;;0.10;0.10;;;13.90;85.20;;;;;;5051620;28;20064;-78
2024/04/05 00:47:33;;;;;;;0.00;0.00;;;13.90;85.20;;;;;;5018569;28;20041;-78
2024/04/05 00:50:01;;;;;;;0.00;0.00;;;13.90;85.10;;;;;;5019023;28;20041;-79
2024/04/05 00:52:28;;;;;;;0.10;0.10;;;14.00;85.00;;;;;;5018955;28;20485;-78
2024/04/05 00:54:54;;;;;;;0.00;0.00;;;14.00;84.90;;;;;;5018350;28;20029;-78
2024/04/05 00:57:20;;;;;;;0.00;0.00;;;14.00;84.80;;;;;;5018924;28;20512;-78
2024/04/05 00:59:46;;;;;;;0.10;0.10;;;14.00;84.70;;;;;;5023027;28;20562;-78
2024/04/05 01:02:12;;;;;;;0.00;0.00;;;14.00;84.70;;;;;;5038758;28;20025;-78
2024/04/05 01:04:38;;;;;;;0.10;0.10;;;14.10;84.60;;;;;;5037756;28;20096;-79
2024/04/05 01:07:04;;;;;;;0.00;0.00;;;14.10;84.50;;;;;;5028400;28;20030;-79
2024/04/05 01:09:30;;;;;;;0.10;0.10;;;14.20;84.40;;;;;;5018659;28;20030;-78
2024/04/05 01:11:57;;;;;;;0.00;0.00;;;14.20;84.40;;;;;;5018547;28;20117;-78
2024/04/05 01:14:22;;;;;;;0.10;0.10;;;14.20;84.20;;;;;;5018333;28;20077;-79
2024/04/05 01:16:48;;;;;;;0.00;0.00;;;14.10;84.20;;;;;;5018340;28;20062;-79
2024/04/05 01:19:17;;;;;;;0.00;0.00;;;14.20;84.30;;;;;;5032882;28;20103;-78
2024/04/05 01:21:51;;;;;;;0.10;0.10;;;14.20;84.20;;;;;;5021318;28;20046;-78
2024/04/05 01:24:17;;;;;;;0.00;0.00;;;14.20;84.20;;;;;;5022733;28;20036;-79
2024/04/05 01:26:43;;;;;;;0.05;0.05;;;14.20;84.00;;;;;;5048316;28;20037;-79
2024/04/05 01:29:09;;;;;;;0.05;0.05;;;14.20;83.90;;;;;;5033419;28;20030;-79
2024/04/05 01:31:34;;;;;;;0.00;0.00;;;14.30;83.80;;;;;;5037014;28;20436;-78
2024/04/05 01:34:00;;;;;;;0.08;0.08;;;14.30;83.80;;;;;;5019572;28;20033;-78
2024/04/05 01:36:26;;;;;;;0.00;0.00;;;14.30;83.70;;;;;;5019884;28;20055;-79
2024/04/05 01:38:52;;;;;;;0.10;0.10;;;14.30;83.40;;;;;;5037174;28;20018;-78
2024/04/05 01:41:22;;;;;;;0.00;0.00;;;14.30;83.10;;;;;;5037937;28;20479;-79
2024/04/05 01:43:47;;;;;;;0.10;0.10;;;14.40;83.00;;;;;;5028528;28;20022;-79
2024/04/05 01:46:13;;;;;;;0.00;0.00;;;14.40;82.90;;;;;;5017920;28;20033;-79
2024/04/05 01:48:39;;;;;;;0.00;0.00;;;14.50;82.60;;;;;;5018034;28;20026;-79
2024/04/05 01:51:04;;;;;;;0.10;0.10;;;14.50;82.40;;;;;;5017482;28;20022;-78
2024/04/05 01:53:30;;;;;;;0.10;0.10;;;14.50;82.30;;;;;;5017574;28;20022;-79
2024/04/05 01:56:01;;;;;;;0.00;0.00;;;14.60;82.00;;;;;;5017257;28;20400;-79
2024/04/05 01:58:27;;;;;;;0.10;0.10;;;14.60;81.80;;;;;;5016192;28;20022;-79
2024/04/05 02:01:02;;;;;;;0.00;0.00;;;14.60;81.50;;;;;;5030961;28;20914;-79
2024/04/05 02:03:28;;;;;;;0.08;0.08;;;14.60;81.50;;;;;;5037201;28;20017;-79
2024/04/05 02:05:54;;;;;;;0.03;0.03;;;14.70;81.40;;;;;;5037038;28;20040;-79
2024/04/05 02:08:20;;;;;;;0.00;0.00;;;14.70;81.10;;;;;;5025177;28;20030;-79
2024/04/05 02:10:46;;;;;;;0.00;0.00;;;14.70;81.00;;;;;;5017478;28;20030;-78
2024/04/05 02:13:12;;;;;;;0.10;0.10;;;14.80;80.80;;;;;;5016382;28;20404;-79
2024/04/05 02:15:46;;;;;;;0.10;0.10;;;14.80;80.70;;;;;;5017005;28;20022;-79
2024/04/05 02:18:11;;;;;;;0.00;0.00;;;14.80;80.50;;;;;;5016286;28;20535;-79
2024/04/05 02:20:39;;;;;;;0.00;0.00;;;14.80;80.30;;;;;;5017206;28;20077;-79
2024/04/05 02:23:05;;;;;;;0.00;0.00;;;14.80;80.20;;;;;;5017312;28;20468;-79
2024/04/05 02:25:30;;;;;;;0.00;0.00;;;14.80;80.20;;;;;;5015337;28;20026;-79
2024/04/05 02:27:56;;;;;;;0.10;0.10;;;14.90;80.30;;;;;;5017319;28;20034;-79
2024/04/05 02:30:24;;;;;;;0.00;0.00;;;14.80;80.10;;;;;;5026242;28;20022;-79
2024/04/05 02:32:49;;;;;;;0.10;0.10;;;14.80;79.90;;;;;;5036817;28;20049;-79
2024/04/05 02:35:15;;;;;;;0.00;0.00;;;14.90;80.00;;;;;;5028588;28;20049;-79
2024/04/05 02:37:41;;;;;;;0.00;0.00;;;14.80;80.00;;;;;;5045976;28;20091;-78
2024/04/05 02:40:08;;;;;;;0.00;0.00;;;14.80;80.00;;;;;;5022949;28;20041;-79
2024/04/05 02:42:33;;;;;;;0.00;0.00;;;14.80;79.90;;;;;;5016524;28;20018;-79
2024/04/05 02:44:59;;;;;;;0.00;0.00;;;14.80;79.90;;;;;;5017193;28;20078;-78
2024/04/05 02:47:25;;;;;;;0.05;0.05;;;14.80;79.90;;;;;;5032403;28;20034;-78
2024/04/05 02:49:53;;;;;;;0.00;0.00;;;14.80;79.90;;;;;;5016908;28;20032;-79
2024/04/05 02:52:19;;;;;;;0.10;0.10;;;14.80;80.00;;;;;;5016169;28;20034;-79
2024/04/05 02:54:44;;;;;;;0.00;0.00;;;14.80;80.00;;;;;;5016756;28;20057;-79
2024/04/05 02:57:10;;;;;;;0.00;0.00;;;14.80;80.00;;;;;;5016793;28;20898;-79
2024/04/05 02:59:36;;;;;;;0.00;0.00;;;14.80;80.00;;;;;;5017874;28;20033;-79
2024/04/05 03:02:01;;;;;;;0.00;0.00;;;14.80;80.10;;;;;;5036469;28;20032;-79
2024/04/05 03:04:27;;;;;;;0.10;0.10;;;14.80;80.10;;;;;;5033338;28;20108;-79
2024/04/05 03:06:52;;;;;;;0.00;0.00;;;14.80;80.20;;;;;;5036115;28;20060;-79
2024/04/05 03:09:18;;;;;;;0.08;0.08;;;14.80;80.10;;;;;;5035586;28;20446;-78
2024/04/05 03:11:44;;;;;;;0.10;0.10;;;14.80;80.10;;;;;;5035886;28;20029;-79
2024/04/05 03:14:09;;;;;;;0.10;0.10;;;14.80;79.90;;;;;;5018083;28;20388;-79
2024/04/05 03:16:35;;;;;;;0.00;0.00;;;14.80;79.80;;;;;;5016360;28;20029;-79
2024/04/05 03:19:00;;;;;;;0.00;0.00;;;14.80;79.70;;;;;;5016600;28;20069;-79
2024/04/05 03:21:26;;;;;;;0.08;0.08;;;14.80;79.30;;;;;;5016100;28;20436;-79
2024/04/05 03:23:52;;;;;;;0.00;0.00;;;14.90;79.30;;;;;;5016473;28;20081;-79
2024/04/05 03:26:18;;;;;;;0.00;0.00;;;14.90;79.10;;;;;;5021298;28;20013;-79
2024/04/05 03:28:45;;;;;;;0.00;0.00;;;14.90;78.90;;;;;;5018053;28;20056;-79
2024/04/05 03:31:11;;;;;;;0.00;0.00;;;15.00;78.60;;;;;;5017455;28;20113;-79
2024/04/05 03:33:36;;;;;;;0.10;0.10;;;15.00;78.70;;;;;;5034469;28;20056;-79
2024/04/05 03:36:04;;;;;;;0.05;0.05;;;15.00;78.60;;;;;;5036049;28;20075;-79
2024/04/05 03:38:29;;;;;;;0.00;0.00;;;15.00;78.50;;;;;;5035105;28;20021;-79
2024/04/05 03:40:55;;;;;;;0.00;0.00;;;15.10;78.60;;;;;;5017194;28;20073;-78
2024/04/05 03:43:20;;;;;;;0.00;0.00;;;15.00;78.50;;;;;;5016480;28;20040;-79
2024/04/05 03:45:46;;;;;;;0.00;0.00;;;15.10;78.20;;;;;;5016492;28;20108;-78
2024/04/05 03:48:12;;;;;;;0.10;0.10;;;15.20;78.20;;;;;;5015756;28;20109;-79
2024/04/05 03:50:37;;;;;;;0.00;0.00;;;15.10;78.40;;;;;;5016191;28;20086;-79
2024/04/05 03:53:03;;;;;;;0.00;0.00;;;15.20;78.80;;;;;;5015914;28;20037;-79
2024/04/05 03:55:29;;;;;;;0.00;0.00;;;15.10;79.30;;;;;;5015462;28;20551;-79
2024/04/05 03:57:54;;;;;;;0.00;0.00;;;15.10;79.70;;;;;;5016189;28;20053;-78
2024/04/05 04:00:23;;;;;;;0.00;0.00;;;15.10;79.80;;;;;;5025107;28;20034;-79
2024/04/05 04:02:51;;;;;;;0.00;0.00;;;15.10;79.90;;;;;;5035684;28;20018;-78
2024/04/05 04:05:17;;;;;;;0.10;0.10;;;15.10;79.90;;;;;;5034486;28;20040;-78
2024/04/05 04:07:42;;;;;;;0.00;0.00;;;15.10;80.10;;;;;;5015837;28;20392;-78
2024/04/05 04:10:08;;;;;;;0.00;0.00;;;15.00;80.40;;;;;;5016047;28;20056;-78
2024/04/05 04:12:34;;;;;;;0.00;0.00;;;15.00;80.50;;;;;;5014672;28;20030;-78
2024/04/05 04:15:01;;;;;;;0.10;0.10;;;15.00;80.70;;;;;;5014540;28;20556;-79
2024/04/05 04:17:26;;;;;;;0.00;0.00;;;15.00;81.40;;;;;;5016050;28;20543;-79
2024/04/05 04:19:52;;;;;;;0.00;0.00;;;14.90;81.50;;;;;;5016098;28;20388;-78
2024/04/05 04:22:19;;;;;;;0.00;0.00;;;14.80;82.30;;;;;;5019337;28;20066;-79
2024/04/05 04:24:44;;;;;;;0.10;0.10;;;14.80;82.40;;;;;;5019523;28;20022;-79
2024/04/05 04:27:11;;;;;;;0.10;0.10;;;14.80;82.60;;;;;;5019450;28;20032;-78
2024/04/05 04:29:37;;;;;;;0.00;0.00;;;14.70;83.00;;;;;;5022168;28;20034;-78
2024/04/05 04:32:03;;;;;;;0.00;0.00;;;14.70;83.20;;;;;;5035242;28;20091;-78
2024/04/05 04:34:28;;;;;;;0.00;0.00;;;14.70;83.40;;;;;;5038761;28;20045;-78
2024/04/05 04:36:54;;;;;;;0.10;0.10;;;14.70;83.40;;;;;;5036271;28;20045;-78
2024/04/05 04:39:19;;;;;;;0.00;0.00;;;14.70;83.50;;;;;;5020859;28;20087;-78
2024/04/05 04:41:45;;;;;;;0.00;0.00;;;14.70;83.90;;;;;;5038925;28;20432;-78
2024/04/05 04:44:11;;;;;;;0.03;0.03;;;14.70;83.80;;;;;;5021362;28;20040;-78
2024/04/05 04:46:36;;;;;;;0.10;0.10;;;14.70;84.00;;;;;;5024044;28;20062;-77
2024/04/05 04:49:02;;;;;;;0.00;0.00;;;14.60;84.30;;;;;;5024454;28;20034;-75
2024/04/05 04:51:28;;;;;;;0.10;0.10;;;14.60;84.30;;;;;;5034225;28;20030;-75
2024/04/05 04:53:54;;;;;;;0.00;0.00;;;14.70;84.20;;;;;;5018710;28;20049;-75
2024/04/05 04:56:20;;;;;;;0.10;0.10;;;14.70;84.40;;;;;;5018076;28;20064;-75
2024/04/05 04:58:47;;;;;;;0.03;0.03;;;14.60;84.60;;;;;;5018570;28;20029;-76
2024/04/05 05:01:12;;;;;;;0.10;0.10;;;14.60;84.60;;;;;;5033044;28;20043;-75
2024/04/05 05:03:38;;;;;;;0.00;0.00;;;14.60;84.70;;;;;;5038159;28;20013;-76
2024/04/05 05:06:04;;;;;;;0.10;0.10;;;14.70;84.70;;;;;;5037723;28;20472;-75
2024/04/05 05:08:29;;;;;;;0.05;0.05;;;14.60;84.90;;;;;;5018351;28;20033;-75
2024/04/05 05:10:55;;;;;;;0.03;0.03;;;14.60;85.00;;;;;;5017038;28;20030;-77
2024/04/05 05:13:21;;;;;;;0.10;0.10;;;14.50;85.30;;;;;;5018161;28;20374;-74
2024/04/05 05:15:46;;;;;;;0.10;0.10;;;14.50;85.40;;;;;;5019688;28;20080;-74
2024/04/05 05:18:12;;;;;;;0.10;0.10;;;14.50;85.50;;;;;;5037727;28;20500;-74
2024/04/05 05:20:48;;;;;;;0.10;0.10;;;14.50;85.90;;;;;;5042317;28;20446;-75
2024/04/05 05:23:14;;;;;;;0.10;0.10;;;14.40;86.20;;;;;;5028079;28;20068;-74
2024/04/05 05:25:42;;;;;;;0.05;0.05;;;14.40;86.50;;;;;;5020761;28;20471;-74
2024/04/05 05:28:09;;;;;;;0.00;0.00;;;14.40;86.80;;;;;;5029715;28;20053;-76
2024/04/05 05:30:34;;;;;;;0.00;0.00;;;14.30;87.10;;;;;;5027922;28;20036;-73
2024/04/05 05:33:00;;;;;;;0.00;0.00;;;14.30;87.20;;;;;;5019086;28;20037;-75
2024/04/05 05:35:26;;;;;;;0.00;0.00;;;14.30;87.30;;;;;;5017870;28;20092;-75
2024/04/05 05:37:52;;;;;;;0.10;0.10;;;14.20;87.50;;;;;;5017456;28;20026;-74
2024/04/05 05:40:18;;;;;;;0.00;0.00;;;14.30;87.60;;;;;;5016465;28;20034;-75
2024/04/05 05:42:43;;;;;;;0.00;0.00;;;14.30;87.50;;;;;;5017739;28;20440;-75
2024/04/05 05:45:09;;;;;;;0.00;0.00;;;14.30;87.50;;;;;;5016248;28;20030;-75
2024/04/05 05:47:34;;;;;;;0.03;0.03;;;14.20;87.60;;;;;;5017197;28;20022;-75
2024/04/05 05:50:00;;;;;;;0.10;0.10;;;14.30;87.70;;;;;;5017060;28;20040;-75
2024/04/05 05:52:26;;;;;;;0.10;0.10;;;14.20;87.80;;;;;;5027509;28;20029;-75
2024/04/05 05:54:52;;;;;;;0.03;0.03;;;14.20;88.00;;;;;;5018615;28;20107;-76
2024/04/05 05:57:18;;;;;;;0.00;0.00;;;14.30;87.70;;;;;;5022239;28;20034;-75
2024/04/05 05:59:43;;;;;;;0.00;0.00;;;14.30;87.70;;;;;;5024790;28;20028;-75
2024/04/05 06:02:09;;;;;;;0.10;0.10;;;14.30;87.80;;;;;;5035216;28;20025;-75
2024/04/05 06:04:34;;;;;;;0.00;0.00;;;14.30;87.70;;;;;;5018237;28;20029;-75
2024/04/05 06:07:00;;;;;;;0.00;0.00;;;14.40;87.50;;;;;;5036355;28;20478;-75
2024/04/05 06:09:26;;;;;;;0.00;0.00;;;14.40;87.50;;;;;;5017035;28;20035;-75
2024/04/05 06:11:52;;;;;;;0.00;0.00;;;14.30;87.70;;;;;;5017765;28;20025;-75
2024/04/05 06:14:18;;;;;;;0.00;0.00;;;14.30;87.60;;;;;;5018234;28;20083;-75
2024/04/05 06:16:44;;;;;;;0.10;0.10;;;14.40;87.40;;;;;;5017867;28;20037;-75
2024/04/05 06:19:10;;;;;;;0.10;0.10;;;14.40;87.30;;;;;;5012558;28;20018;-75
2024/04/05 06:21:35;;;;;;;0.10;0.10;;;14.30;87.40;;;;;;5032342;28;20052;-75
2024/04/05 06:24:01;;;;;;;0.00;0.00;;;14.30;87.60;;;;;;5036331;28;20108;-76
2024/04/05 06:26:27;;;;;;;0.10;0.10;;;14.30;87.50;;;;;;5019514;28;20571;-75
2024/04/05 06:28:53;;;;;;;0.10;0.10;;;14.40;87.50;;;;;;5027053;28;20053;-75
2024/04/05 06:31:18;;;;;;;0.05;0.05;;;14.40;87.30;;;;;;5016981;28;20176;-75
2024/04/05 06:33:45;;;;;;;0.00;0.00;;;14.40;87.30;;;;;;5035797;28;20419;-75
2024/04/05 06:36:10;;;;;;;0.10;0.10;;;14.50;87.30;;;;;;5035572;28;20038;-75
2024/04/05 06:38:36;;;;;;;0.10;0.10;;;14.40;87.20;;;;;;5004194;28;20028;-75
2024/04/05 06:41:02;;;;;;;0.10;0.10;;;14.50;87.20;;;;;;5016271;28;20045;-75
2024/04/05 06:43:29;;;;;;;0.00;0.00;;;14.50;87.10;;;;;;5036442;28;20468;-76
2024/04/05 06:45:59;;;;;;;0.10;0.10;;;14.50;87.20;;;;;;5035574;28;20029;-75
2024/04/05 06:48:25;;;;;;;0.10;0.10;;;14.60;87.00;;;;;;5024450;28;20029;-76
2024/04/05 06:50:51;;;;;;;0.00;0.00;;;14.50;87.40;;;;;;5015352;28;20404;-75
2024/04/05 06:53:20;;;;;;;0.00;0.00;;;14.50;87.30;;;;;;5023020;28;20033;-76
2024/04/05 06:55:49;;;;;;;0.00;0.00;;;14.50;87.20;;;;;;5035484;28;20025;-75
2024/04/05 06:58:15;;;;;;;0.10;0.10;;;14.50;87.00;;;;;;5032233;28;20017;-75
2024/04/05 07:00:41;;;;;;;0.10;0.10;;;14.50;87.10;;;;;;5027632;28;20057;-75
2024/04/05 07:03:07;;;;;;;0.00;0.00;;;14.50;87.00;;;;;;5018320;28;20045;-75
2024/04/05 07:05:33;;;;;;;0.10;0.10;;;14.60;86.80;;;;;;5017537;28;20038;-75
2024/04/05 07:07:59;;;;;;;0.03;0.03;;;14.60;86.80;;;;;;5033334;28;20029;-75
2024/04/05 07:10:27;;;;;;;0.03;0.03;;;14.60;86.70;;;;;;5034390;28;20407;-76
2024/04/05 07:12:52;;;;;;;0.00;0.00;;;14.60;86.80;;;;;;5035505;28;20736;-75
2024/04/05 07:15:21;;;;;;;0.00;0.00;;;14.60;86.70;;;;;;5035789;28;20381;-75
2024/04/05 07:17:51;;;;;;;0.10;0.10;;;14.60;86.70;;;;;;5034335;28;20049;-75
2024/04/05 07:20:21;;;;;;;0.00;0.00;;;14.70;86.60;;;;;;5018700;28;20036;-76
2024/04/05 07:22:48;;;;;;;0.10;0.10;;;14.70;86.40;;;;;;5037336;28;20120;-75
2024/04/05 07:25:14;;;;;;;0.10;0.10;;;14.70;86.40;;;;;;5027562;28;20029;-76
2024/04/05 07:27:41;;;;;;;0.03;0.03;;;14.70;86.30;;;;;;5030960;28;20091;-76
2024/04/05 07:30:08;;;;;;;0.10;0.10;;;14.70;86.10;;;;;;5023893;28;20071;-76
2024/04/05 07:32:34;;;;;;;0.10;0.10;;;14.80;86.10;;;;;;5018514;28;20033;-75
2024/04/05 07:35:00;;;;;;;0.10;0.10;;;14.80;86.10;;;;;;5032595;28;20495;-75
2024/04/05 07:37:26;;;;;;;0.10;0.10;;;14.80;86.10;;;;;;5036828;28;20849;-75
2024/04/05 07:39:54;;;;;;;0.10;0.10;;;14.80;85.90;;;;;;5017113;28;20022;-75
2024/04/05 07:42:20;;;;;;;0.00;0.00;;;14.80;85.80;;;;;;5010732;28;20037;-75
2024/04/05 07:44:46;;;;;;;0.10;0.10;;;14.80;85.70;;;;;;5018040;28;20061;-75
2024/04/05 07:47:13;;;;;;;0.10;0.10;;;14.90;85.70;;;;;;5016825;28;20025;-74
2024/04/05 07:49:39;;;;;;;0.10;0.10;;;14.90;85.50;;;;;;5036484;28;20476;-75
2024/04/05 07:52:05;;;;;;;0.10;0.10;;;14.90;85.30;;;;;;5036896;28;20049;-75
2024/04/05 07:54:31;;;;;;;0.10;0.10;;;14.80;85.30;;;;;;5027604;28;20065;-75
2024/04/05 07:56:57;;;;;;;0.10;0.10;;;14.90;85.40;;;;;;5041055;28;20395;-74
2024/04/05 07:59:23;;;;;;;0.00;0.00;;;15.00;85.20;;;;;;5033603;28;20024;-74
2024/04/05 08:01:49;;;;;;;0.10;0.10;;;15.10;85.00;;;;;;5039203;28;20056;-74
2024/04/05 08:04:15;;;;;;;0.10;0.10;;;15.10;84.80;;;;;;5020800;28;20560;-75
2024/04/05 08:06:40;;;;;;;0.10;0.10;;;15.30;84.60;;;;;;5038334;28;20510;-78
2024/04/05 08:09:07;;;;;;;0.10;0.10;;;15.50;84.10;;;;;;5037354;28;20037;-77
2024/04/05 08:11:33;;;;;;;0.10;0.10;;;15.90;83.10;;;;;;5020728;28;20033;-77
2024/04/05 08:13:58;;;;;;;0.10;0.10;;;16.30;82.50;;;;;;5038224;28;20091;-78
2024/04/05 08:16:26;;;;;;;0.10;0.10;;;16.30;82.00;;;;;;5037990;28;20017;-77
2024/04/05 08:18:52;;;;;;;0.10;0.10;;;16.60;81.20;;;;;;5021059;28;20026;-78
2024/04/05 08:21:18;;;;;;;0.10;0.10;;;16.70;81.00;;;;;;5031160;28;20048;-77
2024/04/05 08:23:44;;;;;;;0.10;0.10;;;16.70;80.40;;;;;;5019259;28;20434;-78
2024/04/05 08:26:10;;;;;;;0.10;0.10;;;16.70;80.30;;;;;;5001172;28;20124;-77
2024/04/05 08:28:36;;;;;;;0.10;0.10;;;16.70;80.30;;;;;;5019128;28;20034;-78
2024/04/05 08:31:02;;;;;;;0.10;0.10;;;16.80;79.90;;;;;;5037899;28;20080;-78
2024/04/05 08:33:28;;;;;;;0.10;0.10;;;16.80;79.90;;;;;;5029377;28;20025;-78
2024/04/05 08:35:54;;;;;;;0.10;0.10;;;16.80;79.60;;;;;;5038527;28;20117;-78
2024/04/05 08:38:20;;;;;;;0.10;0.10;;;17.00;79.50;;;;;;5038289;28;20022;-78
2024/04/05 08:40:47;;;;;;;0.10;0.10;;;17.10;78.80;;;;;;5037104;28;20032;-78
2024/04/05 08:43:16;;;;;;;0.10;0.10;;;17.10;78.70;;;;;;5045963;28;20026;-78
2024/04/05 08:45:42;;;;;;;0.10;0.10;;;17.10;78.20;;;;;;5019021;28;20037;-78
2024/04/05 08:48:09;;;;;;;0.10;0.10;;;17.20;78.30;;;;;;5018746;28;20504;-78
2024/04/05 08:50:36;;;;;;;0.10;0.10;;;17.30;77.80;;;;;;5038867;28;20092;-77
2024/04/05 08:53:02;;;;;;;0.10;0.10;;;17.30;77.00;;;;;;5058627;28;20029;-78
2024/04/05 08:55:28;;;;;;;0.10;0.10;;;17.30;77.60;;;;;;5058113;28;20051;-78
2024/04/05 08:57:55;;;;;;;0.10;0.10;;;17.20;77.30;;;;;;5041123;28;20019;-78
2024/04/05 09:00:24;;;;;;;0.10;0.10;;;17.00;77.60;;;;;;5017811;28;20022;-78
2024/04/05 09:02:52;;;;;;;0.10;0.10;;;17.10;77.50;;;;;;5012670;28;20021;-78
2024/04/05 09:05:17;;;;;;;0.10;0.10;;;17.20;77.80;;;;;;5018298;28;20033;-78
2024/04/05 09:07:43;;;;;;;0.10;0.10;;;17.40;76.80;;;;;;5024414;28;20030;-78
2024/04/05 09:10:22;;;;;;;0.10;0.10;;;17.50;75.50;;;;;;5034924;28;20026;-78
2024/04/05 09:12:48;;;;;;;0.10;0.10;;;17.90;75.10;;;;;;5037974;28;20081;-78
2024/04/05 09:15:21;;;;;;;0.35;0.35;;;18.20;74.40;;;;;;5038298;28;21082;-81
2024/04/05 09:17:48;;;;;;;0.10;0.10;;;18.80;72.60;;;;;;5009045;28;20018;-76
2024/04/05 09:20:19;;;;;;;0.10;0.10;;;18.90;71.90;;;;;;5027479;28;20475;-76
2024/04/05 09:22:46;;;;;;;0.10;0.10;;;19.00;71.20;;;;;;5025338;28;20108;-77
2024/04/05 09:25:12;;;;;;;0.10;0.10;;;18.80;71.70;;;;;;5031638;28;20056;-76
2024/04/05 09:27:38;;;;;;;0.00;0.00;;;18.70;71.90;;;;;;5016261;28;20612;-76
2024/04/05 09:30:05;;;;;;;0.10;0.10;;;18.80;71.60;;;;;;5037405;28;20033;-76
2024/04/05 09:32:31;;;;;;;0.10;0.10;;;18.60;72.20;;;;;;5019832;28;20033;-77
2024/04/05 09:34:57;;;;;;;0.10;0.10;;;18.60;71.00;;;;;;5036333;28;20030;-77
2024/04/05 09:37:27;;;;;;;0.10;0.10;;;18.60;71.10;;;;;;5034438;28;20029;-82
2024/04/05 09:39:53;;;;;;;0.10;0.10;;;18.60;71.40;;;;;;5002107;28;20504;-77
2024/04/05 09:42:22;;;;;;;0.20;0.20;;;18.60;71.20;;;;;;5032283;28;20037;-77
2024/04/05 09:44:55;;;;;;;0.10;0.10;;;18.60;71.40;;;;;;5025455;28;20033;-77
2024/04/05 09:47:22;;;;;;;0.10;0.10;;;18.60;71.50;;;;;;5031688;28;20056;-77
2024/04/05 09:49:49;;;;;;;0.10;0.10;;;18.90;71.60;;;;;;5037556;28;20118;-77
2024/04/05 09:52:20;;;;;;;0.20;0.20;;;18.90;71.40;;;;;;5026087;28;20036;-77
2024/04/05 09:54:53;;;;;;;0.28;0.28;;;19.30;70.60;;;;;;5018297;28;20037;-77
2024/04/05 09:57:19;;;;;;;0.10;0.10;;;19.60;68.60;;;;;;5034500;28;20476;-77
2024/04/05 09:59:48;;;;;;;0.10;0.10;;;19.70;68.00;;;;;;5030599;28;20145;-77
2024/04/05 10:02:17;;;;;;;0.10;0.10;;;19.30;67.40;;;;;;5034192;28;20033;-77
2024/04/05 10:04:44;;;;;;;0.10;0.10;;;19.00;68.20;;;;;;5031089;28;20014;-77
2024/04/05 10:07:11;;;;;;;0.10;0.10;;;18.60;68.40;;;;;;5036554;28;20052;-76
2024/04/05 10:09:38;;;;;;;0.10;0.10;;;18.50;68.80;;;;;;5035629;28;20053;-76
2024/04/05 10:12:14;;;;;;;0.10;0.10;;;18.70;69.50;;;;;;5036347;28;20025;-76
2024/04/05 10:14:41;;;;;;;0.08;0.08;;;18.60;69.80;;;;;;5029987;28;20038;-75
2024/04/05 10:17:11;;;;;;;0.10;0.10;;;18.60;69.10;;;;;;5031230;28;20115;-76
2024/04/05 10:19:38;;;;;;;0.30;0.30;;;18.60;69.70;;;;;;5039376;28;20357;-76
2024/04/05 10:22:05;;;;;;;0.10;0.10;;;19.10;69.30;;;;;;5035163;28;20049;-76
2024/04/05 10:24:32;;;;;;;0.20;0.20;;;19.30;68.90;;;;;;5037843;28;20391;-75
2024/04/05 10:26:58;;;;;;;0.10;0.10;;;19.80;68.70;;;;;;5036420;28;20164;-75
2024/04/05 10:29:25;;;;;;;0.10;0.10;;;20.00;68.70;;;;;;5021739;28;20032;-75
2024/04/05 10:32:03;;;;;;;0.10;0.10;;;19.70;67.10;;;;;;5038176;28;20033;-76
2024/04/05 10:34:31;;;;;;;0.10;0.10;;;19.50;67.60;;;;;;5055654;28;20462;-75
2024/04/05 10:36:58;;;;;;;0.10;0.10;;;19.30;67.80;;;;;;5053937;28;20086;-76
2024/04/05 10:39:24;;;;;;;0.10;0.10;;;19.40;68.60;;;;;;5038577;28;20068;-76
2024/04/05 10:41:50;;;;;;;0.10;0.10;;;19.30;67.60;;;;;;5037062;28;20087;-76
2024/04/05 10:44:18;;;;;;;0.10;0.10;;;19.20;67.60;;;;;;5038315;28;20120;-79
2024/04/05 10:46:50;;;;;;;0.10;0.10;;;19.10;66.90;;;;;;5038375;28;20013;-76
2024/04/05 10:49:19;;;;;;;0.10;0.10;;;19.10;67.30;;;;;;5054920;28;20028;-77
2024/04/05 10:51:46;;;;;;;0.10;0.10;;;19.20;68.30;;;;;;5046879;28;20021;-76
2024/04/05 10:54:16;;;;;;;0.10;0.10;;;19.30;67.00;;;;;;5054506;28;20021;-75
2024/04/05 10:56:44;;;;;;;0.10;0.10;;;19.20;66.50;;;;;;5036889;28;20100;-75
2024/04/05 10:59:10;;;;;;;0.10;0.10;;;19.20;66.10;;;;;;5055595;28;20021;-77
2024/04/05 11:01:37;;;;;;;0.10;0.10;;;18.90;66.30;;;;;;5034152;28;20025;-78
2024/04/05 11:04:12;;;;;;;0.10;0.10;;;18.80;66.10;;;;;;5052776;28;20029;-76
2024/04/05 11:06:41;;;;;;;0.10;0.10;;;18.90;66.00;;;;;;5030455;28;20037;-76
2024/04/05 11:09:09;;;;;;;0.10;0.10;;;18.90;66.80;;;;;;5052986;28;20391;-75
2024/04/05 11:11:35;;;;;;;0.10;0.10;;;18.80;66.40;;;;;;5034668;28;20028;-76
2024/04/05 11:14:05;;;;;;;0.10;0.10;;;18.80;66.10;;;;;;5048158;28;20033;-76
2024/04/05 11:16:32;;;;;;;0.10;0.10;;;18.80;66.60;;;;;;5037476;28;20025;-75
2024/04/05 11:18:58;;;;;;;0.10;0.10;;;18.80;66.50;;;;;;5034527;28;20029;-76
2024/04/05 11:21:24;;;;;;;0.10;0.10;;;18.90;64.80;;;;;;5039822;28;20575;-76
2024/04/05 11:23:53;;;;;;;0.10;0.10;;;19.10;65.30;;;;;;5033134;28;20041;-76
2024/04/05 11:26:20;;;;;;;0.10;0.10;;;19.10;65.10;;;;;;5031748;28;20030;-74
2024/04/05 11:28:47;;;;;;;0.10;0.10;;;19.10;65.30;;;;;;5033315;28;20021;-74
2024/04/05 11:31:14;;;;;;;0.08;0.08;;;19.20;65.80;;;;;;5037936;28;20033;-75
2024/04/05 11:33:39;;;;;;;0.10;0.10;;;19.10;64.90;;;;;;5030955;28;20104;-75
2024/04/05 11:36:05;;;;;;;0.10;0.10;;;19.30;64.40;;;;;;5035725;28;20140;-74
2024/04/05 11:38:31;;;;;;;0.10;0.10;;;19.40;64.20;;;;;;5037362;28;20022;-74
2024/04/05 11:40:57;;;;;;;0.10;0.10;;;19.70;64.40;;;;;;5032883;28;20045;-74
2024/04/05 11:43:23;;;;;;;0.10;0.10;;;20.00;64.40;;;;;;5032777;28;20056;-74
2024/04/05 11:45:49;;;;;;;0.10;0.10;;;20.20;63.90;;;;;;5021457;28;20105;-75
2024/04/05 11:48:15;;;;;;;0.10;0.10;;;20.30;63.60;;;;;;5031632;28;20053;-74
2024/04/05 11:50:40;;;;;;;0.10;0.10;;;20.20;61.20;;;;;;5018221;28;20125;-75
2024/04/05 11:53:07;;;;;;;0.10;0.10;;;20.00;61.00;;;;;;5032217;28;20025;-75
2024/04/05 11:55:32;;;;;;;0.10;0.10;;;19.70;60.60;;;;;;5037193;28;20029;-76
2024/04/05 11:57:58;;;;;;;0.10;0.10;;;19.60;61.10;;;;;;5034668;28;20025;-76
2024/04/05 12:00:24;;;;;;;0.10;0.10;;;19.70;60.90;;;;;;5035233;28;20180;-76
2024/04/05 12:02:50;;;;;;;0.10;0.10;;;19.70;62.80;;;;;;5034525;28;20060;-76
2024/04/05 12:05:17;;;;;;;0.10;0.10;;;19.90;63.10;;;;;;5033585;28;20029;-76
2024/04/05 12:07:43;;;;;;;0.10;0.10;;;20.00;63.10;;;;;;5029005;28;20033;-76
2024/04/05 12:10:09;;;;;;;0.10;0.10;;;19.90;62.80;;;;;;5018952;28;20156;-76
2024/04/05 12:12:35;;;;;;;0.10;0.10;;;19.70;63.20;;;;;;5018997;28;20746;-76
2024/04/05 12:15:01;;;;;;;0.10;0.10;;;19.60;62.30;;;;;;5032915;28;20033;-76
2024/04/05 12:17:30;;;;;;;0.10;0.10;;;19.50;63.60;;;;;;5030368;28;20029;-76
2024/04/05 12:19:55;;;;;;;0.10;0.10;;;19.50;63.20;;;;;;5031319;28;20029;-76
2024/04/05 12:22:21;;;;;;;0.00;0.00;;;19.50;63.60;;;;;;5055217;28;20483;-76
2024/04/05 12:24:48;;;;;;;0.10;0.10;;;19.40;64.80;;;;;;5035247;28;20488;-76
2024/04/05 12:27:14;;;;;;;0.10;0.10;;;19.20;64.50;;;;;;5029055;28;20128;-76
2024/04/05 12:29:41;;;;;;;0.10;0.10;;;19.20;65.30;;;;;;5037025;28;20124;-75
2024/04/05 12:32:07;;;;;;;0.10;0.10;;;19.20;66.00;;;;;;5021341;28;20455;-76
2024/04/05 12:34:33;;;;;;;0.10;0.10;;;19.20;65.30;;;;;;5036506;28;20047;-76
2024/04/05 12:37:08;;;;;;;0.10;0.10;;;19.50;65.10;;;;;;5048449;28;20027;-76
2024/04/05 12:39:34;;;;;;;0.10;0.10;;;19.70;64.60;;;;;;5001091;28;20026;-79
2024/04/05 12:42:00;;;;;;;0.10;0.10;;;19.70;64.20;;;;;;5036474;28;20037;-76
2024/04/05 12:44:28;;;;;;;0.10;0.10;;;19.50;64.00;;;;;;5038528;28;20041;-76